sensor_id;sensor_type;location;lat;lon;timestamp;pressure;altitude;pressure_sealevel;temperature;humidity
36190;BME280;22232;50.914;13.858;2022-09-09T00:03:44;97458.56;;;14.08;100.00
36190;BME280;22232;50.914;13.858;2022-09-09T00:06:36;97464.47;;;14.05;100.00
36190;BME280;22232;50.914;13.858;2022-09-09T00:09:25;97456.97;;;14.07;100.00
36190;BME280;22232;50.914;13.858;2022-09-09T00:15:07;97456.75;;;14.19;100.00
36190;BME280;22232;50.914;13.858;2022-09-09T00:17:58;97448.22;;;14.32;100.00
36190;BME280;22232;50.914;13.858;2022-09-09T00:23:12;97451.25;;;14.56;100.00
36190;BME280;22232;50.914;13.858;2022-09-09T00:25:49;97444.56;;;14.59;100.00
36190;BME280;22232;50.914;13.858;2022-09-09T00:28:26;97449.91;;;14.54;100.00
36190;BME280;22232;50.914;13.858;2022-09-09T00:30:55;97450.41;;;14.51;100.00
36190;BME280;22232;50.914;13.858;2022-09-09T00:33:26;97449.59;;;14.45;100.00
36190;BME280;22232;50.914;13.858;2022-09-09T00:35:57;97451.22;;;14.46;100.00
36190;BME280;22232;50.914;13.858;2022-09-09T00:38:35;97454.50;;;14.58;100.00
36190;BME280;22232;50.914;13.858;2022-09-09T00:55:25;97452.50;;;14.28;100.00
36190;BME280;22232;50.914;13.858;2022-09-09T00:57:55;97460.53;;;14.23;100.00
36190;BME280;22232;50.914;13.858;2022-09-09T01:05:54;97466.97;;;14.22;100.00
36190;BME280;22232;50.914;13.858;2022-09-09T01:10:53;97457.84;;;14.23;100.00
36190;BME280;22232;50.914;13.858;2022-09-09T01:13:29;97457.28;;;14.21;100.00
36190;BME280;22232;50.914;13.858;2022-09-09T01:16:03;97454.06;;;14.19;100.00
36190;BME280;22232;50.914;13.858;2022-09-09T01:18:40;97460.50;;;14.18;100.00
36190;BME280;22232;50.914;13.858;2022-09-09T01:21:35;97463.44;;;14.16;100.00
36190;BME280;22232;50.914;13.858;2022-09-09T01:26:58;97467.22;;;14.20;100.00
36190;BME280;22232;50.914;13.858;2022-09-09T01:29:26;97459.41;;;14.14;100.00
36190;BME280;22232;50.914;13.858;2022-09-09T01:34:24;97465.81;;;14.08;100.00
36190;BME280;22232;50.914;13.858;2022-09-09T01:37:02;97455.91;;;14.08;100.00
36190;BME280;22232;50.914;13.858;2022-09-09T01:39:33;97456.94;;;14.02;100.00
36190;BME280;22232;50.914;13.858;2022-09-09T01:42:08;97452.38;;;14.03;100.00
36190;BME280;22232;50.914;13.858;2022-09-09T01:44:37;97453.19;;;13.98;100.00
36190;BME280;22232;50.914;13.858;2022-09-09T01:47:06;97456.41;;;14.00;100.00
36190;BME280;22232;50.914;13.858;2022-09-09T01:49:39;97451.84;;;14.00;100.00
36190;BME280;22232;50.914;13.858;2022-09-09T01:52:16;97455.06;;;13.97;100.00
36190;BME280;22232;50.914;13.858;2022-09-09T01:54:44;97452.91;;;13.99;100.00
36190;BME280;22232;50.914;13.858;2022-09-09T01:57:20;97449.19;;;14.00;100.00
36190;BME280;22232;50.914;13.858;2022-09-09T02:02:35;97454.78;;;13.94;100.00
36190;BME280;22232;50.914;13.858;2022-09-09T02:07:52;97448.06;;;13.96;100.00
36190;BME280;22232;50.914;13.858;2022-09-09T02:10:50;97444.84;;;13.94;100.00
36190;BME280;22232;50.914;13.858;2022-09-09T02:13:35;97444.34;;;13.97;100.00
36190;BME280;22232;50.914;13.858;2022-09-09T02:16:22;97449.69;;;13.97;100.00
36190;BME280;22232;50.914;13.858;2022-09-09T02:21:36;97450.50;;;13.98;100.00
36190;BME280;22232;50.914;13.858;2022-09-09T02:24:06;97445.94;;;13.98;100.00
36190;BME280;22232;50.914;13.858;2022-09-09T02:26:46;97449.19;;;14.00;100.00
36190;BME280;22232;50.914;13.858;2022-09-09T02:29:36;97449.41;;;13.94;100.00
36190;BME280;22232;50.914;13.858;2022-09-09T02:32:11;97459.59;;;13.92;100.00
36190;BME280;22232;50.914;13.858;2022-09-09T02:34:45;97442.38;;;13.83;100.00
36190;BME280;22232;50.914;13.858;2022-09-09T02:37:19;97442.63;;;13.76;100.00
36190;BME280;22232;50.914;13.858;2022-09-09T02:39:52;97453.34;;;13.76;100.00
36190;BME280;22232;50.914;13.858;2022-09-09T02:42:21;97453.59;;;13.74;100.00
36190;BME280;22232;50.914;13.858;2022-09-09T02:44:52;97449.53;;;13.72;100.00
36190;BME280;22232;50.914;13.858;2022-09-09T02:47:36;97452.78;;;13.74;100.00
36190;BME280;22232;50.914;13.858;2022-09-09T02:55:46;97460.59;;;13.81;100.00
36190;BME280;22232;50.914;13.858;2022-09-09T02:58:18;97459.03;;;13.85;100.00
36190;BME280;22232;50.914;13.858;2022-09-09T03:00:57;97454.97;;;13.82;100.00
36190;BME280;22232;50.914;13.858;2022-09-09T03:03:26;97454.69;;;13.79;100.00
36190;BME280;22232;50.914;13.858;2022-09-09T03:05:55;97453.84;;;13.73;100.00
36190;BME280;22232;50.914;13.858;2022-09-09T03:08:26;97454.91;;;13.72;100.00
36190;BME280;22232;50.914;13.858;2022-09-09T03:10:58;97463.47;;;13.69;100.00
36190;BME280;22232;50.914;13.858;2022-09-09T03:13:31;97454.38;;;13.70;100.00
36190;BME280;22232;50.914;13.858;2022-09-09T03:15:59;97456.50;;;13.68;100.00
36190;BME280;22232;50.914;13.858;2022-09-09T03:18:30;97455.97;;;13.71;100.00
36190;BME280;22232;50.914;13.858;2022-09-09T03:20:57;97462.69;;;13.73;100.00
36190;BME280;22232;50.914;13.858;2022-09-09T03:23:27;97460.78;;;13.69;100.00
36190;BME280;22232;50.914;13.858;2022-09-09T03:25:56;97463.75;;;13.67;100.00
36190;BME280;22232;50.914;13.858;2022-09-09T03:28:35;97470.47;;;13.70;100.00
36190;BME280;22232;50.914;13.858;2022-09-09T03:31:05;97468.03;;;13.68;100.00
36190;BME280;22232;50.914;13.858;2022-09-09T03:33:39;97465.63;;;13.72;100.00
36190;BME280;22232;50.914;13.858;2022-09-09T03:36:11;97463.22;;;13.70;100.00
36190;BME280;22232;50.914;13.858;2022-09-09T03:38:39;97462.44;;;13.75;100.00
36190;BME280;22232;50.914;13.858;2022-09-09T03:41:07;97460.53;;;13.70;100.00
36190;BME280;22232;50.914;13.858;2022-09-09T03:43:36;97463.47;;;13.69;100.00
36190;BME280;22232;50.914;13.858;2022-09-09T03:46:04;97459.97;;;13.68;100.00
36190;BME280;22232;50.914;13.858;2022-09-09T03:48:32;97457.31;;;13.68;100.00
36190;BME280;22232;50.914;13.858;2022-09-09T03:51:00;97459.41;;;13.66;100.00
36190;BME280;22232;50.914;13.858;2022-09-09T03:53:31;97457.25;;;13.63;100.00
36190;BME280;22232;50.914;13.858;2022-09-09T03:56:02;97464.22;;;13.59;100.00
36190;BME280;22232;50.914;13.858;2022-09-09T03:58:31;97458.81;;;13.54;100.00
36190;BME280;22232;50.914;13.858;2022-09-09T04:01:08;97466.56;;;13.50;100.00
36190;BME280;22232;50.914;13.858;2022-09-09T04:03:37;97460.91;;;13.47;100.00
36190;BME280;22232;50.914;13.858;2022-09-09T04:06:06;97458.00;;;13.48;100.00
36190;BME280;22232;50.914;13.858;2022-09-09T04:08:35;97464.16;;;13.49;100.00
36190;BME280;22232;50.914;13.858;2022-09-09T04:11:04;97460.91;;;13.47;100.00
36190;BME280;22232;50.914;13.858;2022-09-09T04:13:36;97463.03;;;13.45;100.00
36190;BME280;22232;50.914;13.858;2022-09-09T04:16:09;97460.88;;;13.42;100.00
36190;BME280;22232;50.914;13.858;2022-09-09T04:18:38;97459.03;;;13.42;100.00
36190;BME280;22232;50.914;13.858;2022-09-09T04:21:08;97459.03;;;13.47;100.00
36190;BME280;22232;50.914;13.858;2022-09-09T04:23:36;97460.69;;;13.53;100.00
36190;BME280;22232;50.914;13.858;2022-09-09T04:26:04;97455.09;;;13.60;100.00
36190;BME280;22232;50.914;13.858;2022-09-09T04:28:35;97457.03;;;13.65;100.00
36190;BME280;22232;50.914;13.858;2022-09-09T04:31:08;97453.53;;;13.69;100.00
36190;BME280;22232;50.914;13.858;2022-09-09T04:33:38;97451.97;;;13.73;100.00
36190;BME280;22232;50.914;13.858;2022-09-09T04:36:08;97465.19;;;13.90;100.00
36190;BME280;22232;50.914;13.858;2022-09-09T04:38:36;97453.56;;;14.22;100.00
36190;BME280;22232;50.914;13.858;2022-09-09T04:41:05;97462.28;;;14.65;100.00
36190;BME280;22232;50.914;13.858;2022-09-09T04:43:34;97456.19;;;15.16;100.00
36190;BME280;22232;50.914;13.858;2022-09-09T04:46:04;97460.44;;;15.73;100.00
36190;BME280;22232;50.914;13.858;2022-09-09T04:48:33;97459.50;;;16.18;100.00
36190;BME280;22232;50.914;13.858;2022-09-09T04:51:05;97454.91;;;16.84;100.00
36190;BME280;22232;50.914;13.858;2022-09-09T04:53:34;97466.00;;;17.46;100.00
36190;BME280;22232;50.914;13.858;2022-09-09T04:56:04;97455.31;;;17.94;100.00
36190;BME280;22232;50.914;13.858;2022-09-09T04:58:36;97460.78;;;18.31;100.00
36190;BME280;22232;50.914;13.858;2022-09-09T05:01:07;97461.66;;;18.70;97.56
36190;BME280;22232;50.914;13.858;2022-09-09T05:03:37;97458.72;;;18.66;91.72
36190;BME280;22232;50.914;13.858;2022-09-09T05:06:15;97464.28;;;19.13;90.49
36190;BME280;22232;50.914;13.858;2022-09-09T05:08:45;97453.75;;;19.44;88.03
36190;BME280;22232;50.914;13.858;2022-09-09T05:11:21;97455.41;;;18.93;88.32
36190;BME280;22232;50.914;13.858;2022-09-09T05:13:53;97461.16;;;19.38;89.93
36190;BME280;22232;50.914;13.858;2022-09-09T05:16:22;97459.22;;;19.58;85.82
36190;BME280;22232;50.914;13.858;2022-09-09T05:18:50;97460.44;;;19.65;83.32
36190;BME280;22232;50.914;13.858;2022-09-09T05:21:21;97462.09;;;19.47;86.44
36190;BME280;22232;50.914;13.858;2022-09-09T05:23:50;97458.28;;;19.81;88.09
36190;BME280;22232;50.914;13.858;2022-09-09T05:26:20;97457.09;;;19.87;89.57
36190;BME280;22232;50.914;13.858;2022-09-09T05:28:50;97468.84;;;19.64;88.16
36190;BME280;22232;50.914;13.858;2022-09-09T05:31:19;97471.38;;;19.41;90.19
36190;BME280;22232;50.914;13.858;2022-09-09T05:33:50;97466.81;;;18.90;96.50
36190;BME280;22232;50.914;13.858;2022-09-09T05:36:19;97474.72;;;18.63;100.00
36190;BME280;22232;50.914;13.858;2022-09-09T05:38:51;97478.31;;;18.34;100.00
36190;BME280;22232;50.914;13.858;2022-09-09T05:41:21;97481.19;;;17.95;100.00
36190;BME280;22232;50.914;13.858;2022-09-09T05:43:53;97491.44;;;17.63;100.00
36190;BME280;22232;50.914;13.858;2022-09-09T05:46:23;97491.59;;;17.48;100.00
36190;BME280;22232;50.914;13.858;2022-09-09T05:48:54;97493.81;;;17.41;100.00
36190;BME280;22232;50.914;13.858;2022-09-09T05:51:28;97495.88;;;17.20;100.00
36190;BME280;22232;50.914;13.858;2022-09-09T05:54:01;97496.81;;;17.00;100.00
36190;BME280;22232;50.914;13.858;2022-09-09T05:56:32;97500.69;;;16.79;100.00
36190;BME280;22232;50.914;13.858;2022-09-09T05:59:00;97501.56;;;16.64;100.00
36190;BME280;22232;50.914;13.858;2022-09-09T06:01:33;97500.44;;;16.75;100.00
36190;BME280;22232;50.914;13.858;2022-09-09T06:04:02;97497.44;;;16.82;100.00
36190;BME280;22232;50.914;13.858;2022-09-09T06:06:36;97499.50;;;16.95;100.00
36190;BME280;22232;50.914;13.858;2022-09-09T06:09:10;97505.94;;;17.04;100.00
36190;BME280;22232;50.914;13.858;2022-09-09T06:11:41;97501.25;;;17.20;100.00
36190;BME280;22232;50.914;13.858;2022-09-09T06:14:10;97497.94;;;17.28;100.00
36190;BME280;22232;50.914;13.858;2022-09-09T06:16:39;97503.06;;;17.30;100.00
36190;BME280;22232;50.914;13.858;2022-09-09T06:19:15;97503.31;;;17.28;100.00
36190;BME280;22232;50.914;13.858;2022-09-09T06:21:43;97506.28;;;17.32;100.00
36190;BME280;22232;50.914;13.858;2022-09-09T06:24:12;97506.19;;;17.42;100.00
36190;BME280;22232;50.914;13.858;2022-09-09T06:26:41;97501.44;;;17.63;100.00
36190;BME280;22232;50.914;13.858;2022-09-09T06:29:16;97496.81;;;18.65;100.00
36190;BME280;22232;50.914;13.858;2022-09-09T06:31:44;97503.66;;;19.70;100.00
36190;BME280;22232;50.914;13.858;2022-09-09T06:34:15;97496.19;;;20.23;100.00
36190;BME280;22232;50.914;13.858;2022-09-09T06:36:47;97493.91;;;20.16;100.00
36190;BME280;22232;50.914;13.858;2022-09-09T06:39:14;97492.50;;;20.19;100.00
36190;BME280;22232;50.914;13.858;2022-09-09T06:41:44;97498.72;;;20.33;100.00
36190;BME280;22232;50.914;13.858;2022-09-09T06:44:34;97496.44;;;21.26;100.00
36190;BME280;22232;50.914;13.858;2022-09-09T06:47:05;97505.38;;;22.03;88.14
36190;BME280;22232;50.914;13.858;2022-09-09T06:49:33;97491.22;;;22.46;78.52
36190;BME280;22232;50.914;13.858;2022-09-09T06:52:06;97499.94;;;22.26;79.00
36190;BME280;22232;50.914;13.858;2022-09-09T06:54:33;97500.31;;;22.10;82.09
36190;BME280;22232;50.914;13.858;2022-09-09T06:57:05;97495.47;;;22.30;84.59
36190;BME280;22232;50.914;13.858;2022-09-09T06:59:55;97500.16;;;21.53;86.84
36190;BME280;22232;50.914;13.858;2022-09-09T07:02:24;97503.84;;;21.35;94.96
36190;BME280;22232;50.914;13.858;2022-09-09T07:04:53;97507.16;;;21.09;88.06
36190;BME280;22232;50.914;13.858;2022-09-09T07:07:20;97501.66;;;21.00;90.85
36190;BME280;22232;50.914;13.858;2022-09-09T07:09:48;97504.78;;;20.94;97.67
36190;BME280;22232;50.914;13.858;2022-09-09T07:12:16;97493.78;;;20.62;89.05
36190;BME280;22232;50.914;13.858;2022-09-09T07:14:52;97492.47;;;20.32;99.26
36190;BME280;22232;50.914;13.858;2022-09-09T07:17:19;97496.41;;;20.54;100.00
36190;BME280;22232;50.914;13.858;2022-09-09T07:19:47;97497.25;;;20.91;100.00
36190;BME280;22232;50.914;13.858;2022-09-09T07:22:16;97502.28;;;21.20;100.00
36190;BME280;22232;50.914;13.858;2022-09-09T07:24:44;97502.09;;;22.15;99.24
36190;BME280;22232;50.914;13.858;2022-09-09T07:27:14;97493.31;;;22.66;87.92
36190;BME280;22232;50.914;13.858;2022-09-09T07:29:42;97498.69;;;22.09;78.95
36190;BME280;22232;50.914;13.858;2022-09-09T07:32:10;97502.41;;;22.13;90.28
36190;BME280;22232;50.914;13.858;2022-09-09T07:34:38;97505.84;;;21.96;88.11
36190;BME280;22232;50.914;13.858;2022-09-09T07:37:06;97503.84;;;21.80;89.08
36190;BME280;22232;50.914;13.858;2022-09-09T07:39:35;97512.34;;;21.87;93.60
36190;BME280;22232;50.914;13.858;2022-09-09T07:42:02;97494.59;;;21.81;96.67
36190;BME280;22232;50.914;13.858;2022-09-09T07:44:31;97504.19;;;21.87;89.27
36190;BME280;22232;50.914;13.858;2022-09-09T07:47:10;97507.13;;;21.99;92.01
36190;BME280;22232;50.914;13.858;2022-09-09T07:49:49;97502.81;;;21.98;93.83
36190;BME280;22232;50.914;13.858;2022-09-09T07:52:23;97507.00;;;22.04;96.24
36190;BME280;22232;50.914;13.858;2022-09-09T07:54:55;97506.97;;;21.95;92.60
36190;BME280;22232;50.914;13.858;2022-09-09T07:57:24;97512.34;;;22.18;99.68
36190;BME280;22232;50.914;13.858;2022-09-09T07:59:53;97510.28;;;22.72;95.54
36190;BME280;22232;50.914;13.858;2022-09-09T08:02:21;97507.97;;;23.14;88.89
36190;BME280;22232;50.914;13.858;2022-09-09T08:04:49;97510.97;;;23.65;91.68
36190;BME280;22232;50.914;13.858;2022-09-09T08:07:18;97510.69;;;24.13;81.74
36190;BME280;22232;50.914;13.858;2022-09-09T08:09:52;97510.66;;;23.84;78.15
36190;BME280;22232;50.914;13.858;2022-09-09T08:12:26;97511.78;;;23.39;70.24
36190;BME280;22232;50.914;13.858;2022-09-09T08:14:55;97512.13;;;23.20;80.52
36190;BME280;22232;50.914;13.858;2022-09-09T08:17:27;97513.25;;;23.10;81.31
36190;BME280;22232;50.914;13.858;2022-09-09T08:19:56;97510.84;;;23.44;78.67
36190;BME280;22232;50.914;13.858;2022-09-09T08:22:26;97520.91;;;23.43;81.43
36190;BME280;22232;50.914;13.858;2022-09-09T08:24:55;97522.84;;;23.34;80.04
36190;BME280;22232;50.914;13.858;2022-09-09T08:27:23;97524.28;;;23.40;78.07
36190;BME280;22232;50.914;13.858;2022-09-09T08:29:53;97525.41;;;23.48;76.32
36190;BME280;22232;50.914;13.858;2022-09-09T08:32:20;97529.19;;;22.86;75.92
36190;BME280;22232;50.914;13.858;2022-09-09T08:34:48;97527.72;;;22.71;74.54
36190;BME280;22232;50.914;13.858;2022-09-09T08:37:23;97536.66;;;22.63;83.67
36190;BME280;22232;50.914;13.858;2022-09-09T08:39:51;97547.59;;;22.32;89.10
36190;BME280;22232;50.914;13.858;2022-09-09T08:42:48;97549.06;;;22.15;96.05
36190;BME280;22232;50.914;13.858;2022-09-09T08:45:20;97551.56;;;22.03;98.70
36190;BME280;22232;50.914;13.858;2022-09-09T08:48:06;97548.19;;;21.97;98.36
36190;BME280;22232;50.914;13.858;2022-09-09T08:50:39;97548.03;;;21.35;92.05
36190;BME280;22232;50.914;13.858;2022-09-09T08:53:22;97550.66;;;21.04;96.53
36190;BME280;22232;50.914;13.858;2022-09-09T08:55:59;97553.28;;;20.81;100.00
36190;BME280;22232;50.914;13.858;2022-09-09T08:58:48;97539.31;;;21.02;100.00
36190;BME280;22232;50.914;13.858;2022-09-09T09:04:21;97538.94;;;20.95;100.00
36190;BME280;22232;50.914;13.858;2022-09-09T09:10:04;97538.84;;;20.72;100.00
36190;BME280;22232;50.914;13.858;2022-09-09T09:12:59;97551.41;;;20.68;100.00
36190;BME280;22232;50.914;13.858;2022-09-09T09:15:35;97550.28;;;20.69;100.00
36190;BME280;22232;50.914;13.858;2022-09-09T09:18:04;97558.72;;;20.54;100.00
36190;BME280;22232;50.914;13.858;2022-09-09T09:23:19;97565.94;;;20.31;100.00
36190;BME280;22232;50.914;13.858;2022-09-09T09:25:48;97563.63;;;20.24;100.00
36190;BME280;22232;50.914;13.858;2022-09-09T09:28:24;97557.66;;;19.94;100.00
36190;BME280;22232;50.914;13.858;2022-09-09T09:33:42;97578.84;;;19.36;100.00
36190;BME280;22232;50.914;13.858;2022-09-09T09:36:14;97588.03;;;18.97;100.00
36190;BME280;22232;50.914;13.858;2022-09-09T09:38:55;97578.84;;;18.74;100.00
36190;BME280;22232;50.914;13.858;2022-09-09T09:41:45;97582.88;;;18.76;100.00
36190;BME280;22232;50.914;13.858;2022-09-09T09:44:26;97576.31;;;18.83;100.00
36190;BME280;22232;50.914;13.858;2022-09-09T09:47:25;97566.09;;;18.79;100.00
36190;BME280;22232;50.914;13.858;2022-09-09T09:50:19;97573.34;;;18.84;100.00
36190;BME280;22232;50.914;13.858;2022-09-09T09:53:04;97548.38;;;19.11;100.00
36190;BME280;22232;50.914;13.858;2022-09-09T09:55:49;97548.38;;;19.11;100.00
36190;BME280;22232;50.914;13.858;2022-09-09T09:58:19;97553.94;;;19.39;100.00
36190;BME280;22232;50.914;13.858;2022-09-09T10:00:50;97548.94;;;19.46;100.00
36190;BME280;22232;50.914;13.858;2022-09-09T10:03:33;97547.56;;;19.48;100.00
36190;BME280;22232;50.914;13.858;2022-09-09T10:06:05;97542.28;;;19.57;100.00
36190;BME280;22232;50.914;13.858;2022-09-09T10:08:43;97551.41;;;19.61;100.00
36190;BME280;22232;50.914;13.858;2022-09-09T10:14:21;97552.63;;;20.02;100.00
36190;BME280;22232;50.914;13.858;2022-09-09T10:22:52;97540.47;;;20.46;100.00
36190;BME280;22232;50.914;13.858;2022-09-09T10:25:43;97538.97;;;20.67;100.00
36190;BME280;22232;50.914;13.858;2022-09-09T10:28:30;97538.38;;;20.56;100.00
36190;BME280;22232;50.914;13.858;2022-09-09T10:31:08;97543.16;;;20.46;100.00
36190;BME280;22232;50.914;13.858;2022-09-09T10:36:35;97532.75;;;20.53;100.00
36190;BME280;22232;50.914;13.858;2022-09-09T10:44:30;97505.59;;;21.53;100.00
36190;BME280;22232;50.914;13.858;2022-09-09T10:47:37;97507.53;;;21.84;100.00
36190;BME280;22232;50.914;13.858;2022-09-09T10:50:49;97511.75;;;22.30;100.00
36190;BME280;22232;50.914;13.858;2022-09-09T10:53:35;97509.41;;;22.45;100.00
36190;BME280;22232;50.914;13.858;2022-09-09T10:56:10;97509.66;;;22.75;100.00
36190;BME280;22232;50.914;13.858;2022-09-09T10:58:48;97502.75;;;22.69;100.00
36190;BME280;22232;50.914;13.858;2022-09-09T11:01:31;97503.78;;;22.02;100.00
36190;BME280;22232;50.914;13.858;2022-09-09T11:06:42;97507.97;;;21.10;100.00
36190;BME280;22232;50.914;13.858;2022-09-09T11:09:19;97501.03;;;20.39;100.00
36190;BME280;22232;50.914;13.858;2022-09-09T11:11:54;97492.19;;;20.48;100.00
36190;BME280;22232;50.914;13.858;2022-09-09T11:14:45;97494.00;;;20.25;100.00
36190;BME280;22232;50.914;13.858;2022-09-09T11:17:26;97493.47;;;19.95;100.00
36190;BME280;22232;50.914;13.858;2022-09-09T11:19:57;97495.00;;;19.87;100.00
36190;BME280;22232;50.914;13.858;2022-09-09T11:22:27;97493.47;;;19.81;100.00
36190;BME280;22232;50.914;13.858;2022-09-09T11:30:20;97512.97;;;19.64;100.00
36190;BME280;22232;50.914;13.858;2022-09-09T11:41:41;97495.13;;;19.44;100.00
36190;BME280;22232;50.914;13.858;2022-09-09T11:44:16;97498.09;;;19.29;100.00
36190;BME280;22232;50.914;13.858;2022-09-09T11:46:46;97498.22;;;19.38;100.00
36190;BME280;22232;50.914;13.858;2022-09-09T11:49:40;97503.63;;;19.38;100.00
36190;BME280;22232;50.914;13.858;2022-09-09T11:52:22;97501.63;;;19.30;100.00
36190;BME280;22232;50.914;13.858;2022-09-09T11:54:54;97499.59;;;19.35;100.00
36190;BME280;22232;50.914;13.858;2022-09-09T11:57:32;97503.13;;;19.36;100.00
36190;BME280;22232;50.914;13.858;2022-09-09T12:00:01;97504.63;;;19.61;100.00
36190;BME280;22232;50.914;13.858;2022-09-09T12:02:48;97494.56;;;19.80;100.00
36190;BME280;22232;50.914;13.858;2022-09-09T12:05:17;97495.78;;;20.02;100.00
36190;BME280;22232;50.914;13.858;2022-09-09T12:08:06;97487.88;;;19.91;100.00
36190;BME280;22232;50.914;13.858;2022-09-09T12:10:40;97474.03;;;20.07;100.00
36190;BME280;22232;50.914;13.858;2022-09-09T12:13:20;97467.22;;;20.09;100.00
36190;BME280;22232;50.914;13.858;2022-09-09T12:15:52;97471.03;;;20.22;100.00
36190;BME280;22232;50.914;13.858;2022-09-09T12:18:23;97470.94;;;20.27;100.00
36190;BME280;22232;50.914;13.858;2022-09-09T12:20:59;97468.72;;;20.15;100.00
36190;BME280;22232;50.914;13.858;2022-09-09T12:32:11;97465.47;;;21.05;100.00
36190;BME280;22232;50.914;13.858;2022-09-09T12:34:47;97470.22;;;20.99;100.00
36190;BME280;22232;50.914;13.858;2022-09-09T12:40:33;97466.88;;;20.80;100.00
36190;BME280;22232;50.914;13.858;2022-09-09T12:43:20;97473.84;;;20.95;100.00
36190;BME280;22232;50.914;13.858;2022-09-09T12:45:51;97465.97;;;21.07;100.00
36190;BME280;22232;50.914;13.858;2022-09-09T12:48:32;97463.34;;;21.16;100.00
36190;BME280;22232;50.914;13.858;2022-09-09T12:51:03;97456.63;;;21.13;100.00
36190;BME280;22232;50.914;13.858;2022-09-09T12:53:37;97441.75;;;21.11;100.00
36190;BME280;22232;50.914;13.858;2022-09-09T12:56:08;97451.00;;;21.32;100.00
36190;BME280;22232;50.914;13.858;2022-09-09T12:58:38;97439.13;;;21.42;100.00
36190;BME280;22232;50.914;13.858;2022-09-09T13:01:28;97442.50;;;21.47;100.00
36190;BME280;22232;50.914;13.858;2022-09-09T13:03:57;97439.97;;;21.28;100.00
36190;BME280;22232;50.914;13.858;2022-09-09T13:06:27;97436.13;;;21.29;100.00
36190;BME280;22232;50.914;13.858;2022-09-09T13:09:00;97427.22;;;21.06;100.00
36190;BME280;22232;50.914;13.858;2022-09-09T13:11:35;97434.25;;;21.07;100.00
36190;BME280;22232;50.914;13.858;2022-09-09T13:14:04;97421.03;;;21.15;100.00
36190;BME280;22232;50.914;13.858;2022-09-09T13:16:34;97422.38;;;21.40;100.00
36190;BME280;22232;50.914;13.858;2022-09-09T13:19:15;97419.03;;;21.74;100.00
36190;BME280;22232;50.914;13.858;2022-09-09T13:21:44;97412.00;;;22.21;100.00
36190;BME280;22232;50.914;13.858;2022-09-09T13:24:41;97403.13;;;22.47;100.00
36190;BME280;22232;50.914;13.858;2022-09-09T13:27:40;97401.38;;;22.34;100.00
36190;BME280;22232;50.914;13.858;2022-09-09T13:30:29;97400.38;;;22.30;100.00
36190;BME280;22232;50.914;13.858;2022-09-09T13:33:04;97395.69;;;22.13;100.00
36190;BME280;22232;50.914;13.858;2022-09-09T13:35:33;97407.22;;;22.18;100.00
36190;BME280;22232;50.914;13.858;2022-09-09T13:38:08;97411.41;;;22.25;100.00
36190;BME280;22232;50.914;13.858;2022-09-09T13:40:37;97414.13;;;22.33;100.00
36190;BME280;22232;50.914;13.858;2022-09-09T13:43:14;97417.34;;;22.35;100.00
36190;BME280;22232;50.914;13.858;2022-09-09T13:45:56;97417.81;;;22.29;100.00
36190;BME280;22232;50.914;13.858;2022-09-09T13:48:26;97420.34;;;22.25;100.00
36190;BME280;22232;50.914;13.858;2022-09-09T13:50:58;97414.94;;;22.25;100.00
36190;BME280;22232;50.914;13.858;2022-09-09T13:53:26;97413.88;;;22.12;100.00
36190;BME280;22232;50.914;13.858;2022-09-09T13:55:54;97413.41;;;22.10;100.00
36190;BME280;22232;50.914;13.858;2022-09-09T13:58:22;97418.31;;;21.99;100.00
36190;BME280;22232;50.914;13.858;2022-09-09T14:00:51;97415.56;;;21.91;100.00
36190;BME280;22232;50.914;13.858;2022-09-09T14:03:20;97418.00;;;22.01;100.00
36190;BME280;22232;50.914;13.858;2022-09-09T14:05:48;97413.06;;;22.03;100.00
36190;BME280;22232;50.914;13.858;2022-09-09T14:08:22;97411.97;;;22.04;100.00
36190;BME280;22232;50.914;13.858;2022-09-09T14:10:51;97414.59;;;21.87;100.00
36190;BME280;22232;50.914;13.858;2022-09-09T14:13:19;97407.16;;;22.01;100.00
36190;BME280;22232;50.914;13.858;2022-09-09T14:15:48;97397.75;;;22.07;100.00
36190;BME280;22232;50.914;13.858;2022-09-09T14:18:17;97397.41;;;22.09;100.00
36190;BME280;22232;50.914;13.858;2022-09-09T14:20:44;97392.44;;;22.02;100.00
36190;BME280;22232;50.914;13.858;2022-09-09T14:23:12;97391.47;;;21.89;100.00
36190;BME280;22232;50.914;13.858;2022-09-09T14:25:41;97395.81;;;21.99;100.00
36190;BME280;22232;50.914;13.858;2022-09-09T14:28:13;97399.97;;;22.05;100.00
36190;BME280;22232;50.914;13.858;2022-09-09T14:30:41;97392.53;;;22.19;100.00
36190;BME280;22232;50.914;13.858;2022-09-09T14:33:11;97386.00;;;22.38;100.00
36190;BME280;22232;50.914;13.858;2022-09-09T14:35:39;97381.53;;;22.42;100.00
36190;BME280;22232;50.914;13.858;2022-09-09T14:38:08;97382.53;;;22.46;100.00
36190;BME280;22232;50.914;13.858;2022-09-09T14:40:37;97388.88;;;22.41;100.00
36190;BME280;22232;50.914;13.858;2022-09-09T14:43:05;97392.22;;;22.30;100.00
36190;BME280;22232;50.914;13.858;2022-09-09T14:45:33;97391.50;;;22.15;100.00
36190;BME280;22232;50.914;13.858;2022-09-09T14:48:03;97391.97;;;22.00;97.37
36190;BME280;22232;50.914;13.858;2022-09-09T14:50:31;97393.84;;;21.91;98.49
36190;BME280;22232;50.914;13.858;2022-09-09T14:52:58;97393.50;;;21.84;100.00
36190;BME280;22232;50.914;13.858;2022-09-09T14:55:26;97400.03;;;21.74;100.00
36190;BME280;22232;50.914;13.858;2022-09-09T14:57:55;97403.31;;;21.62;100.00
36190;BME280;22232;50.914;13.858;2022-09-09T15:00:23;97412.72;;;21.34;100.00
36190;BME280;22232;50.914;13.858;2022-09-09T15:02:57;97414.41;;;20.98;100.00